Weather at Mount Comfort Airpark [CLOSED]

Public forecast

Using degrees Fahrenheit for public forecast. Weather courtesy of forecast.io.

Closest aviation weather report (METAR) to Mount Comfort Airpark

Closest report is Drake Field, 5.5 nm (10.1 km) SSE. Retrieved 2020/11/24 01:53 UTC (33 minutes ago):

KFYV 240153Z 10005KT 10SM CLR 08/03 A3013 RMK AO2 SLP208 T00780033

Closest aviation forecast (TAF) to Mount Comfort Airpark

Closest forecast is Drake Field, 5.5 nm (10.1 km) SSE. Retrieved 2020-11-24 00:22 UTC (2 hours ago):

TAF KFYV 232320Z 2400/2424 17010KT P6SM SKC FM240600 17010KT P6SM BKN100 WS020/19040KT FM241400 17014G20KT P6SM BKN025 PROB30 2420/2424 6SM -RA OVC015